Time;durP1;ratioP1;P1;durP2;ratioP2;P2;SDS_P1;SDS_P2;PMS_P1;PMS_P2;Temp;Humidity;BMP_temperature;BMP_pressure;BME280_temperature;BME280_humidity;BME280_pressure;Samples;Min_cycle;Max_cycle;Signal;HPM_P1;HPM_P2
2022/03/06 00:07:59;;;;;;;26.50;11.20;;;;;;;-1.51;69.71;100860.16;21109980;28;20462;-67
2022/03/06 00:18:00;;;;;;;30.07;11.67;;;;;;;-1.41;68.51;100862.28;21109206;28;20195;-66
2022/03/06 00:28:02;;;;;;;24.52;11.57;;;;;;;-1.29;67.96;100844.78;21106410;28;20313;-67
2022/03/06 00:38:04;;;;;;;24.35;11.07;;;;;;;-1.35;69.25;100853.09;21109456;28;20043;-67
2022/03/06 00:48:06;;;;;;;24.73;11.27;;;;;;;-1.33;69.18;100859.19;21104965;28;20052;-67
2022/03/06 00:58:09;;;;;;;25.25;11.32;;;;;;;-1.44;69.25;100852.75;21107451;28;20489;-67
2022/03/06 01:08:11;;;;;;;22.48;10.15;;;;;;;-1.56;69.88;100863.41;21107457;28;20557;-67
2022/03/06 01:18:12;;;;;;;23.58;10.77;;;;;;;-1.64;70.84;100858.78;21113655;28;20063;-67
2022/03/06 01:28:14;;;;;;;28.05;11.82;;;;;;;-1.67;71.34;100869.81;21123211;28;20128;-67
2022/03/06 01:38:15;;;;;;;25.55;11.30;;;;;;;-1.59;70.37;100865.84;21120976;28;20048;-67
2022/03/06 01:48:17;;;;;;;21.25;9.43;;;;;;;-1.44;69.27;100864.69;21121727;28;20052;-67
2022/03/06 01:58:18;;;;;;;22.42;10.70;;;;;;;-1.42;70.12;100858.84;21120535;28;20056;-68
2022/03/06 02:08:20;;;;;;;24.77;11.18;;;;;;;-1.39;69.60;100851.25;21120579;28;20059;-67
2022/03/06 02:18:21;;;;;;;23.58;11.88;;;;;;;-1.30;68.84;100856.72;21119099;28;20462;-67
2022/03/06 02:28:23;;;;;;;27.00;11.43;;;;;;;-1.37;68.74;100849.63;21118475;28;20055;-67
2022/03/06 02:38:24;;;;;;;22.73;10.27;;;;;;;-1.35;68.43;100853.09;21116401;28;20052;-66
2022/03/06 02:48:26;;;;;;;24.67;10.85;;;;;;;-1.34;68.96;100839.47;21116093;28;20113;-67
2022/03/06 02:58:27;;;;;;;24.75;10.98;;;;;;;-1.50;70.49;100849.94;21115796;28;20644;-66
2022/03/06 03:08:29;;;;;;;26.65;10.77;;;;;;;-1.65;71.66;100854.47;21115404;28;20112;-67
2022/03/06 03:18:30;;;;;;;22.92;10.82;;;;;;;-1.76;72.27;100863.41;21115053;28;20055;-67
2022/03/06 03:28:32;;;;;;;23.75;10.55;;;;;;;-1.66;72.54;100863.84;21113898;28;20059;-68
2022/03/06 03:38:33;;;;;;;21.08;10.40;;;;;;;-1.61;72.09;100866.59;21112587;28;20545;-67
2022/03/06 03:48:37;;;;;;;25.17;11.57;;;;;;;-1.70;72.53;100873.94;21112636;28;20126;-67
2022/03/06 03:58:39;;;;;;;21.83;10.73;;;;;;;-1.81;73.76;100889.78;21111965;28;20194;-67
2022/03/06 04:08:41;;;;;;;22.92;10.77;;;;;;;-1.91;75.24;100897.91;21109234;28;20044;-67
2022/03/06 04:18:42;;;;;;;25.08;10.98;;;;;;;-1.82;72.62;100900.84;21109120;28;20048;-68
2022/03/06 04:28:44;;;;;;;23.90;10.18;;;;;;;-1.72;72.30;100911.50;21113503;28;20382;-68
2022/03/06 04:38:45;;;;;;;22.85;9.73;;;;;;;-1.70;71.67;100915.88;21069547;28;20059;-67
2022/03/06 04:48:47;;;;;;;23.98;10.55;;;;;;;-1.79;72.21;100935.16;21090604;28;20051;-68
2022/03/06 04:58:48;;;;;;;21.40;10.02;;;;;;;-2.01;75.68;100933.34;21107010;28;20052;-67
2022/03/06 05:08:50;;;;;;;23.02;10.60;;;;;;;-2.24;77.81;100935.81;21064743;28;20505;-68
2022/03/06 05:18:51;;;;;;;22.52;10.60;;;;;;;-2.34;78.93;100938.75;21091914;28;20051;-67
2022/03/06 05:28:52;;;;;;;24.70;10.00;;;;;;;-2.50;81.05;100950.00;21107693;28;20065;-67
2022/03/06 05:38:54;;;;;;;29.95;11.45;;;;;;;-2.63;82.15;100955.41;21063821;28;20055;-67
2022/03/06 05:48:55;;;;;;;24.92;11.23;;;;;;;-2.59;82.91;100960.72;21091228;28;20048;-67
2022/03/06 05:58:57;;;;;;;24.10;10.43;;;;;;;-2.24;81.36;100968.28;21105781;28;20048;-67
2022/03/06 06:08:58;;;;;;;24.05;11.75;;;;;;;-2.06;79.16;100966.50;21075446;28;20048;-67
2022/03/06 06:19:00;;;;;;;23.33;10.15;;;;;;;-1.87;79.27;100974.22;21115407;28;20093;-68
2022/03/06 06:29:03;;;;;;;21.73;10.80;;;;;;;-1.51;77.96;100974.00;21119056;28;20097;-68
2022/03/06 06:39:05;;;;;;;20.55;10.13;;;;;;;-1.14;74.21;100976.41;21116814;28;20109;-68
2022/03/06 06:49:06;;;;;;;21.08;10.43;;;;;;;-0.83;72.30;100981.06;21115917;28;20056;-68
2022/03/06 06:59:08;;;;;;;22.48;10.95;;;;;;;-0.46;70.95;100987.66;21115397;28;20126;-67
2022/03/06 07:09:10;;;;;;;23.13;11.20;;;;;;;-0.05;68.93;100998.59;21114777;28;20481;-68
2022/03/06 07:19:12;;;;;;;23.27;10.18;;;;;;;0.23;68.34;101000.47;21110722;28;20060;-67
2022/03/06 07:29:13;;;;;;;20.35;10.48;;;;;;;0.45;67.36;100991.81;21112400;28;20101;-67
2022/03/06 07:39:15;;;;;;;24.58;10.70;;;;;;;0.70;66.79;101004.69;21111581;28;20044;-67
2022/03/06 07:49:17;;;;;;;30.30;14.30;;;;;;;1.04;66.17;101013.56;21112082;28;20055;-67
2022/03/06 07:59:21;;;;;;;20.50;10.10;;;;;;;1.42;66.45;101011.31;21111921;28;20043;-67
2022/03/06 08:09:25;;;;;;;23.37;10.43;;;;;;;1.66;65.20;101019.81;21110566;28;20416;-68
2022/03/06 08:19:27;;;;;;;22.60;10.80;;;;;;;2.05;64.17;101012.34;21098701;28;20826;-67
2022/03/06 08:29:28;;;;;;;23.63;11.77;;;;;;;2.26;64.50;101024.16;21096068;28;20051;-67
2022/03/06 08:39:30;;;;;;;23.95;11.80;;;;;;;2.62;62.54;101006.16;21096320;28;20047;-68
2022/03/06 08:49:31;;;;;;;23.75;10.82;;;;;;;2.71;62.30;101021.91;21114383;28;20562;-69
2022/03/06 08:59:33;;;;;;;22.40;11.63;;;;;;;2.95;61.78;101018.19;21101589;28;20064;-68
2022/03/06 09:09:34;;;;;;;23.75;11.73;;;;;;;3.30;59.12;101012.16;21099302;28;20044;-67
2022/03/06 09:19:36;;;;;;;24.77;11.93;;;;;;;3.58;56.63;101017.97;21097712;28;20097;-67
2022/03/06 09:29:37;;;;;;;26.95;13.80;;;;;;;3.96;55.26;101013.63;21099907;28;20051;-67
2022/03/06 09:39:39;;;;;;;22.83;12.52;;;;;;;4.14;56.58;101010.53;21100883;28;20497;-68
2022/03/06 09:49:45;;;;;;;25.17;13.20;;;;;;;4.33;52.60;101022.16;21113608;28;20052;-68
2022/03/06 09:59:47;;;;;;;25.83;13.70;;;;;;;4.59;53.62;101005.34;21114841;28;20051;-69
2022/03/06 10:09:51;;;;;;;27.33;13.43;;;;;;;4.81;52.19;101001.44;21114694;28;20089;-68
2022/03/06 10:20:12;;;;;;;22.37;10.83;;;;;;;5.51;47.94;101004.28;21111836;28;20048;-68
2022/03/06 10:30:37;;;;;;;20.25;10.90;;;;;;;6.07;42.91;100995.53;21111458;28;20062;-68
2022/03/06 10:40:39;;;;;;;15.75;8.23;;;;;;;6.38;41.11;101000.22;21107033;28;20074;-68
2022/03/06 10:50:41;;;;;;;17.25;9.00;;;;;;;6.43;40.22;100992.47;21107752;28;20113;-69
2022/03/06 11:00:42;;;;;;;17.23;8.65;;;;;;;6.31;40.24;100988.00;21104780;28;20100;-68
2022/03/06 11:10:44;;;;;;;18.30;8.88;;;;;;;6.19;38.81;100989.63;21108724;28;20637;-68
2022/03/06 11:20:46;;;;;;;18.52;9.05;;;;;;;6.36;39.53;100981.13;21107525;28;20096;-68
2022/03/06 11:30:48;;;;;;;16.65;8.65;;;;;;;6.45;38.17;100985.56;21106775;28;20043;-68
2022/03/06 11:40:52;;;;;;;15.82;8.80;;;;;;;6.56;36.59;100968.31;21106296;28;20051;-68
2022/03/06 11:51:12;;;;;;;14.32;8.07;;;;;;;5.94;37.45;100958.13;21062838;28;20407;-68
2022/03/06 12:01:28;;;;;;;14.75;8.82;;;;;;;5.99;37.83;100958.16;21095794;28;20508;-68
2022/03/06 12:11:31;;;;;;;16.10;8.38;;;;;;;5.89;37.87;100945.03;21106843;28;20051;-67
2022/03/06 12:21:36;;;;;;;14.70;8.38;;;;;;;6.37;38.00;100935.19;21103201;28;20044;-68
2022/03/06 12:31:38;;;;;;;13.07;8.02;;;;;;;6.10;37.73;100933.19;21100334;28;20059;-67
2022/03/06 12:41:43;;;;;;;15.15;8.88;;;;;;;6.73;37.13;100941.59;21100580;28;20576;-68
2022/03/06 12:51:47;;;;;;;19.75;10.20;;;;;;;6.08;38.36;100927.06;21099846;28;20068;-68
2022/03/06 13:01:49;;;;;;;15.50;8.88;;;;;;;6.31;39.13;100904.78;21099177;28;20492;-68
2022/03/06 13:11:51;;;;;;;19.40;9.15;;;;;;;6.51;36.62;100899.75;21072278;28;20142;-68
2022/03/06 13:21:53;;;;;;;14.00;7.88;;;;;;;6.02;39.08;100901.88;21117324;28;20096;-68
2022/03/06 13:31:54;;;;;;;16.30;9.00;;;;;;;6.38;38.12;100900.53;21115747;28;20047;-68
2022/03/06 13:41:58;;;;;;;15.45;8.98;;;;;;;6.54;36.36;100893.72;21072565;28;20109;-68
2022/03/06 13:52:07;;;;;;;13.73;7.75;;;;;;;6.80;37.24;100873.97;21096339;28;20052;-68
2022/03/06 14:02:11;;;;;;;14.20;8.88;;;;;;;6.18;35.23;100882.16;21125493;28;20051;-69
2022/03/06 14:12:16;;;;;;;17.33;9.47;;;;;;;6.20;35.53;100871.75;21122774;28;20079;-69
2022/03/06 14:22:17;;;;;;;15.37;8.67;;;;;;;6.89;36.41;100873.16;21110923;28;20047;-68
2022/03/06 14:32:19;;;;;;;15.55;9.00;;;;;;;6.69;36.17;100867.81;21109881;28;20381;-68
2022/03/06 14:42:20;;;;;;;14.90;8.25;;;;;;;6.55;37.12;100867.72;21110033;28;20455;-69
2022/03/06 14:52:41;;;;;;;16.92;9.27;;;;;;;6.43;35.60;100870.22;21108694;28;20090;-69
2022/03/06 15:02:43;;;;;;;16.92;9.65;;;;;;;6.85;35.26;100864.50;21107180;28;20051;-68
2022/03/06 15:12:45;;;;;;;16.38;8.75;;;;;;;6.50;36.64;100869.41;21109513;28;20562;-68
2022/03/06 15:22:46;;;;;;;14.55;8.70;;;;;;;6.03;37.81;100877.63;21064323;28;20382;-69
2022/03/06 15:32:48;;;;;;;16.75;8.88;;;;;;;6.21;39.03;100876.94;21089903;28;20043;-68
2022/03/06 15:42:49;;;;;;;16.15;9.50;;;;;;;6.56;37.33;100874.66;21105684;28;20105;-68
2022/03/06 15:52:51;;;;;;;13.32;7.95;;;;;;;6.45;38.97;100886.72;21062424;28;20101;-68
2022/03/06 16:02:52;;;;;;;15.70;9.13;;;;;;;6.11;39.96;100882.91;21098658;28;20081;-68
2022/03/06 16:12:54;;;;;;;15.75;9.32;;;;;;;5.98;39.42;100884.50;21103478;28;20526;-68
2022/03/06 16:23:03;;;;;;;15.02;9.43;;;;;;;5.77;40.45;100892.91;21102813;22;20047;-65
2022/03/06 16:33:06;;;;;;;20.23;11.90;;;;;;;5.47;42.18;100889.94;21016696;28;20087;-63
2022/03/06 16:43:08;;;;;;;15.95;9.63;;;;;;;5.21;42.64;100882.66;21016383;28;20210;-62
2022/03/06 16:53:13;;;;;;;16.08;8.57;;;;;;;4.96;42.35;100885.78;21016092;28;20060;-64
2022/03/06 17:03:15;;;;;;;;;;;;;;;4.90;42.68;100881.38;21009867;28;20135;-63
2022/03/06 17:13:16;;;;;;;18.38;9.80;;;;;;;4.85;42.72;100891.69;20878322;28;19963;-63
2022/03/06 17:23:18;;;;;;;17.50;10.10;;;;;;;4.76;42.63;100916.59;20886716;28;20077;-63
2022/03/06 17:33:19;;;;;;;15.55;10.30;;;;;;;4.54;43.97;100928.31;20882143;28;20048;-63
2022/03/06 17:43:22;;;;;;;17.23;9.75;;;;;;;4.54;43.97;100944.75;20886785;28;20639;-63
2022/03/06 17:53:24;;;;;;;18.55;9.65;;;;;;;4.38;44.31;100959.19;20882459;28;20433;-63
2022/03/06 18:03:26;;;;;;;17.95;10.57;;;;;;;4.33;43.88;100965.13;20896787;28;20079;-62
2022/03/06 18:13:27;;;;;;;17.08;10.02;;;;;;;4.29;43.57;100976.28;20899401;28;20136;-63
2022/03/06 18:23:30;;;;;;;18.52;11.38;;;;;;;4.20;43.98;100976.97;20905641;28;20730;-63
2022/03/06 18:33:31;;;;;;;17.90;10.75;;;;;;;4.11;44.44;100984.56;20897343;28;20048;-64
2022/03/06 18:43:32;;;;;;;15.73;8.93;;;;;;;4.00;44.35;100986.06;20898490;28;20106;-64
2022/03/06 18:53:35;;;;;;;14.48;9.27;;;;;;;4.07;44.37;100987.94;20895292;28;20144;-62
2022/03/06 19:03:36;;;;;;;14.70;9.98;;;;;;;4.03;43.26;100991.34;20901263;28;20107;-61
2022/03/06 19:13:38;;;;;;;16.00;9.95;;;;;;;3.83;45.49;101002.16;20900551;28;20134;-61
2022/03/06 19:23:40;;;;;;;16.98;10.15;;;;;;;3.93;44.58;101004.91;20901537;28;20726;-61
2022/03/06 19:33:43;;;;;;;16.88;9.95;;;;;;;3.75;44.15;101016.66;20890877;28;20053;-62
2022/03/06 19:43:45;;;;;;;22.05;12.23;;;;;;;3.72;43.92;101019.16;20887729;28;20076;-63
2022/03/06 19:53:46;;;;;;;34.35;17.30;;;;;;;3.63;43.31;101016.38;20900346;28;20145;-63
2022/03/06 20:03:48;;;;;;;23.85;13.30;;;;;;;3.59;44.31;101019.72;20891063;28;20122;-63
2022/03/06 20:13:50;;;;;;;19.90;11.90;;;;;;;3.49;43.33;101028.13;20890376;28;20060;-63
2022/03/06 20:23:52;;;;;;;15.57;10.15;;;;;;;3.37;44.37;101045.97;20883171;28;20075;-62
2022/03/06 20:33:55;;;;;;;16.95;10.00;;;;;;;3.43;44.69;101043.53;20883166;28;20057;-64
2022/03/06 20:43:57;;;;;;;15.97;10.00;;;;;;;3.42;44.86;101047.81;20894062;28;20055;-63
2022/03/06 20:53:59;;;;;;;14.38;9.55;;;;;;;3.56;44.65;101054.19;20972561;28;20121;-63
2022/03/06 21:04:00;;;;;;;15.95;9.68;;;;;;;3.27;45.66;101066.44;21010419;28;20086;-63
2022/03/06 21:14:02;;;;;;;15.05;10.15;;;;;;;3.28;46.30;101075.97;21002621;28;20048;-63
2022/03/06 21:24:04;;;;;;;15.70;9.70;;;;;;;3.21;45.32;101081.84;20995369;28;20044;-63
2022/03/06 21:34:05;;;;;;;17.80;11.15;;;;;;;3.27;45.33;101084.56;21010864;28;20093;-63
2022/03/06 21:44:07;;;;;;;18.67;12.30;;;;;;;3.18;46.77;101088.63;21029575;28;20044;-65
2022/03/06 21:54:08;;;;;;;22.58;12.65;;;;;;;3.03;48.78;101096.88;21012978;28;20063;-65
2022/03/06 22:04:11;;;;;;;19.45;11.15;;;;;;;3.06;46.51;101104.69;21024621;28;20086;-65
2022/03/06 22:14:12;;;;;;;16.33;9.95;;;;;;;2.95;46.19;101093.22;21021508;28;20470;-65
2022/03/06 22:24:14;;;;;;;16.08;10.60;;;;;;;2.95;45.79;101100.97;21026130;28;20048;-65
2022/03/06 22:34:16;;;;;;;20.48;10.70;;;;;;;2.99;45.17;101102.81;21026018;28;20343;-65
2022/03/06 22:44:17;;;;;;;16.38;10.45;;;;;;;2.85;45.46;101109.31;21023995;28;20044;-65
2022/03/06 22:54:19;;;;;;;16.27;10.10;;;;;;;2.77;45.39;101109.09;21024675;28;20052;-65
2022/03/06 23:14:42;;;;;;;14.45;9.50;;;;;;;2.59;44.61;101091.41;21030651;28;20489;-65
2022/03/06 23:24:43;;;;;;;15.00;9.55;;;;;;;2.54;43.91;101087.81;21029366;28;20493;-65
2022/03/06 23:34:45;;;;;;;16.02;9.55;;;;;;;2.46;43.58;101081.53;21027787;28;20398;-65
2022/03/06 23:44:46;;;;;;;14.88;9.75;;;;;;;2.47;43.71;101073.81;21024935;28;20049;-65
2022/03/06 23:54:48;;;;;;;16.75;9.18;;;;;;;2.37;44.57;101079.56;21026599;28;20463;-65
